Time;durP1;ratioP1;P1;durP2;ratioP2;P2;SDS_P1;SDS_P2;PMS_P1;PMS_P2;Temp;Humidity;BMP_temperature;BMP_pressure;BME280_temperature;BME280_humidity;BME280_pressure;Samples;Min_cycle;Max_cycle;Signal;HPM_P1;HPM_P2
2023/08/23 00:01:07;;;;;;;10.20;5.43;;;21.70;99.90;;;;;;5052076;28;20950;-66
2023/08/23 00:03:38;;;;;;;10.50;4.90;;;21.70;99.90;;;;;;5029199;28;20787;-65
2023/08/23 00:06:07;;;;;;;13.20;5.17;;;21.60;99.90;;;;;;5028490;28;20469;-66
2023/08/23 00:08:35;;;;;;;10.43;6.00;;;21.60;99.90;;;;;;5029423;28;20551;-66
2023/08/23 00:11:03;;;;;;;11.60;4.90;;;21.60;99.90;;;;;;5029648;28;20910;-67
2023/08/23 00:13:31;;;;;;;12.30;5.47;;;21.50;99.90;;;;;;5028919;28;20445;-66
2023/08/23 00:15:59;;;;;;;10.87;5.57;;;21.60;99.90;;;;;;5029468;28;21182;-66
2023/08/23 00:18:27;;;;;;;9.90;5.10;;;21.60;99.90;;;;;;5029224;28;20528;-66
2023/08/23 00:20:55;;;;;;;9.90;5.13;;;21.60;99.90;;;;;;5029087;28;20441;-66
2023/08/23 00:23:24;;;;;;;11.07;5.53;;;21.50;99.90;;;;;;5031622;28;20453;-64
2023/08/23 00:25:52;;;;;;;11.57;6.43;;;21.50;99.90;;;;;;5031892;28;20465;-66
2023/08/23 00:28:20;;;;;;;12.73;5.83;;;21.40;99.90;;;;;;5031993;28;20479;-66
2023/08/23 00:30:51;;;;;;;15.57;7.00;;;21.40;99.90;;;;;;5031826;28;20491;-66
2023/08/23 00:33:19;;;;;;;11.83;6.30;;;21.40;99.90;;;;;;5031473;28;20495;-66
2023/08/23 00:35:48;;;;;;;13.10;7.17;;;21.40;99.90;;;;;;5031403;28;20465;-64
2023/08/23 00:38:16;;;;;;;10.00;5.97;;;21.30;99.90;;;;;;5032118;28;20444;-65
2023/08/23 00:40:45;;;;;;;10.70;6.23;;;21.30;99.90;;;;;;5031630;28;21160;-65
2023/08/23 00:43:13;;;;;;;11.77;6.67;;;21.30;99.90;;;;;;5031218;28;20865;-66
2023/08/23 00:45:42;;;;;;;11.97;6.33;;;21.20;99.90;;;;;;5031359;28;20526;-66
2023/08/23 00:48:12;;;;;;;11.60;6.60;;;21.20;99.90;;;;;;5031021;28;20481;-66
2023/08/23 00:50:42;;;;;;;11.20;6.20;;;21.30;99.90;;;;;;5031414;28;20448;-66
2023/08/23 00:53:11;;;;;;;12.80;6.23;;;21.20;99.90;;;;;;5044641;28;20463;-66
2023/08/23 00:55:40;;;;;;;12.17;6.57;;;21.20;99.90;;;;;;5043274;28;20468;-66
2023/08/23 00:58:10;;;;;;;11.10;6.10;;;21.20;99.90;;;;;;5051003;28;20440;-66
2023/08/23 01:00:38;;;;;;;11.00;6.40;;;20.90;99.90;;;;;;5050455;28;20444;-66
2023/08/23 01:03:06;;;;;;;12.20;6.93;;;21.00;99.90;;;;;;5051217;28;20953;-66
2023/08/23 01:05:43;;;;;;;14.80;6.47;;;21.10;99.90;;;;;;5051015;28;20470;-67
2023/08/23 01:08:23;;;;;;;11.87;6.57;;;21.00;99.90;;;;;;5050623;28;20475;-67
2023/08/23 01:10:55;;;;;;;12.77;6.93;;;20.90;99.90;;;;;;5050081;28;20448;-66
2023/08/23 01:13:30;;;;;;;18.73;9.70;;;20.80;99.90;;;;;;5050455;28;20438;-64
2023/08/23 01:15:59;;;;;;;13.40;7.20;;;20.80;99.90;;;;;;5050542;28;20459;-66
2023/08/23 01:18:29;;;;;;;14.70;7.33;;;20.80;99.90;;;;;;5051033;28;21021;-66
2023/08/23 01:20:58;;;;;;;12.40;6.63;;;20.80;99.90;;;;;;5051443;28;20440;-65
2023/08/23 01:23:28;;;;;;;14.77;7.73;;;20.80;99.90;;;;;;5038857;28;20507;-66
2023/08/23 01:25:56;;;;;;;12.00;7.10;;;20.70;99.90;;;;;;5030754;28;20540;-66
2023/08/23 01:28:24;;;;;;;13.13;7.70;;;20.60;99.90;;;;;;5030342;28;20473;-66
2023/08/23 01:30:52;;;;;;;13.80;7.10;;;20.60;99.90;;;;;;5030705;28;20951;-66
2023/08/23 01:33:37;;;;;;;12.47;7.40;;;20.60;99.90;;;;;;5030380;28;21198;-66
2023/08/23 01:36:11;;;;;;;11.80;7.20;;;20.60;99.90;;;;;;5030766;28;20883;-66
2023/08/23 01:38:41;;;;;;;12.80;7.37;;;20.50;99.90;;;;;;5050410;28;20531;-66
2023/08/23 01:41:10;;;;;;;11.87;6.53;;;20.50;99.90;;;;;;5050224;28;20517;-66
2023/08/23 01:43:38;;;;;;;11.37;7.00;;;20.50;99.90;;;;;;5050235;28;20440;-66
2023/08/23 01:46:06;;;;;;;12.47;8.00;;;20.40;99.90;;;;;;5050097;28;20460;-66
2023/08/23 01:48:34;;;;;;;12.57;6.80;;;20.40;99.90;;;;;;5050210;28;20992;-66
2023/08/23 01:51:01;;;;;;;11.80;7.40;;;20.40;99.90;;;;;;5039820;28;20445;-65
2023/08/23 01:53:29;;;;;;;10.97;6.83;;;20.50;99.90;;;;;;5029563;28;20931;-66
2023/08/23 01:56:00;;;;;;;13.40;7.67;;;20.50;99.90;;;;;;5030068;28;20515;-66
2023/08/23 01:58:28;;;;;;;13.00;7.50;;;20.40;99.90;;;;;;5030057;28;20444;-67
2023/08/23 02:00:55;;;;;;;13.93;7.50;;;20.40;99.90;;;;;;5029676;28;20445;-65
2023/08/23 02:03:23;;;;;;;11.50;7.40;;;20.40;99.90;;;;;;5029048;28;20448;-66
2023/08/23 02:05:54;;;;;;;12.80;6.73;;;20.40;99.90;;;;;;5045948;28;20468;-66
2023/08/23 02:08:22;;;;;;;11.83;6.63;;;20.40;99.90;;;;;;5049781;28;20483;-66
2023/08/23 02:10:50;;;;;;;12.87;7.57;;;20.20;99.90;;;;;;5049789;28;20535;-67
2023/08/23 02:13:19;;;;;;;13.80;8.47;;;20.30;99.90;;;;;;5048645;28;20444;-67
2023/08/23 02:15:47;;;;;;;14.93;8.27;;;20.30;99.90;;;;;;5049772;28;20468;-66
2023/08/23 02:18:15;;;;;;;11.20;6.80;;;20.30;99.90;;;;;;5050037;28;20538;-66
2023/08/23 02:20:44;;;;;;;12.20;7.50;;;20.30;99.90;;;;;;5042613;28;20452;-67
2023/08/23 02:23:12;;;;;;;12.27;6.80;;;20.30;99.90;;;;;;5029564;28;21125;-65
2023/08/23 02:25:41;;;;;;;12.60;7.57;;;20.20;99.90;;;;;;5030151;28;20531;-66
2023/08/23 02:28:09;;;;;;;12.30;7.10;;;20.10;99.90;;;;;;5034026;28;20433;-66
2023/08/23 02:30:39;;;;;;;14.70;7.10;;;20.00;99.90;;;;;;5050154;28;20965;-66
2023/08/23 02:33:07;;;;;;;12.43;7.13;;;20.00;99.90;;;;;;5049234;28;20454;-65
2023/08/23 02:35:35;;;;;;;11.80;7.00;;;20.00;99.90;;;;;;5049710;28;20467;-67
2023/08/23 02:38:03;;;;;;;13.03;7.20;;;20.10;99.90;;;;;;5048791;28;21043;-65
2023/08/23 02:40:31;;;;;;;13.33;6.60;;;20.10;99.90;;;;;;5049530;28;20527;-66
2023/08/23 02:42:59;;;;;;;12.60;6.50;;;20.10;99.90;;;;;;5049279;28;20443;-66
2023/08/23 02:45:27;;;;;;;13.03;8.03;;;20.00;99.90;;;;;;5049299;28;20667;-66
2023/08/23 02:47:56;;;;;;;10.27;6.73;;;20.00;99.90;;;;;;5049615;28;20444;-66
2023/08/23 02:50:24;;;;;;;11.87;6.70;;;20.00;99.90;;;;;;5048779;28;20865;-66
2023/08/23 02:52:52;;;;;;;13.87;8.00;;;19.90;99.90;;;;;;5043437;28;20535;-65
2023/08/23 02:55:20;;;;;;;11.80;6.83;;;20.00;99.90;;;;;;5039870;28;20436;-66
2023/08/23 02:57:48;;;;;;;18.80;8.80;;;19.90;99.90;;;;;;5049333;28;20444;-66
2023/08/23 03:00:17;;;;;;;14.43;7.70;;;19.90;99.90;;;;;;5049250;28;20475;-64
2023/08/23 03:02:45;;;;;;;13.47;8.23;;;19.90;99.90;;;;;;5048974;28;20448;-66
2023/08/23 03:05:14;;;;;;;18.97;7.60;;;19.90;99.90;;;;;;5049180;28;20451;-65
2023/08/23 03:07:42;;;;;;;15.93;7.70;;;19.90;99.90;;;;;;5049351;28;20448;-66
2023/08/23 03:10:11;;;;;;;14.10;8.17;;;19.90;99.90;;;;;;5048346;28;20566;-64
2023/08/23 03:12:39;;;;;;;11.83;7.40;;;20.00;99.90;;;;;;5048825;28;20538;-66
2023/08/23 03:15:08;;;;;;;15.40;7.90;;;19.90;99.90;;;;;;5049311;28;20447;-66
2023/08/23 03:17:36;;;;;;;14.77;8.10;;;19.80;99.90;;;;;;5049166;28;20509;-64
2023/08/23 03:20:05;;;;;;;15.13;9.33;;;19.80;99.90;;;;;;5046672;28;20490;-65
2023/08/23 03:22:35;;;;;;;13.87;7.63;;;19.80;99.90;;;;;;5044919;28;20524;-65
2023/08/23 03:25:03;;;;;;;13.37;7.70;;;19.80;99.90;;;;;;5048704;28;20436;-65
2023/08/23 03:27:30;;;;;;;11.83;6.83;;;19.70;99.90;;;;;;5052863;28;20465;-66
2023/08/23 03:29:58;;;;;;;15.20;7.67;;;19.70;99.90;;;;;;5052434;28;20992;-65
2023/08/23 03:32:26;;;;;;;12.53;7.17;;;19.50;99.90;;;;;;5045520;28;20445;-66
2023/08/23 03:34:54;;;;;;;12.57;7.43;;;19.50;99.90;;;;;;5032771;28;20536;-66
2023/08/23 03:37:22;;;;;;;17.17;9.23;;;19.50;99.90;;;;;;5032539;28;20917;-66
2023/08/23 03:39:52;;;;;;;13.57;8.93;;;19.40;99.90;;;;;;5043510;28;20471;-66
2023/08/23 03:42:20;;;;;;;14.60;8.20;;;19.30;99.90;;;;;;5052247;28;20479;-66
2023/08/23 03:44:47;;;;;;;14.03;8.17;;;19.20;99.90;;;;;;5052331;28;20444;-66
2023/08/23 03:47:15;;;;;;;14.30;8.50;;;19.30;99.90;;;;;;5052232;28;21138;-65
2023/08/23 03:49:43;;;;;;;13.43;8.63;;;19.30;99.90;;;;;;5052564;28;20467;-66
2023/08/23 03:52:11;;;;;;;12.20;8.27;;;19.30;99.90;;;;;;5032507;28;20481;-66
2023/08/23 03:54:39;;;;;;;12.83;9.03;;;19.20;99.90;;;;;;5031954;28;20506;-66
2023/08/23 03:57:08;;;;;;;13.50;8.70;;;19.20;99.90;;;;;;5031775;28;20468;-65
2023/08/23 03:59:37;;;;;;;13.37;8.47;;;19.10;99.90;;;;;;5031883;28;20530;-65
2023/08/23 04:02:05;;;;;;;15.00;9.10;;;19.00;99.90;;;;;;5032688;28;20874;-65
2023/08/23 04:04:32;;;;;;;14.33;9.00;;;19.00;99.90;;;;;;5037272;28;20445;-66
2023/08/23 04:07:01;;;;;;;17.03;8.43;;;19.00;99.90;;;;;;5052067;28;20986;-66
2023/08/23 04:09:29;;;;;;;14.67;7.60;;;19.00;99.90;;;;;;5051555;28;20456;-66
2023/08/23 04:11:56;;;;;;;14.03;8.17;;;19.00;99.90;;;;;;5051483;28;20450;-66
2023/08/23 04:14:26;;;;;;;16.23;8.73;;;19.00;99.90;;;;;;5051691;28;20452;-66
2023/08/23 04:16:54;;;;;;;13.97;8.23;;;19.00;99.90;;;;;;5051565;28;20471;-66
2023/08/23 04:19:22;;;;;;;11.80;7.77;;;18.90;99.90;;;;;;5051948;28;20493;-66
2023/08/23 04:21:49;;;;;;;15.20;9.60;;;18.80;99.90;;;;;;5038697;28;20449;-66
2023/08/23 04:24:18;;;;;;;14.03;8.70;;;19.00;99.90;;;;;;5033323;28;20481;-64
2023/08/23 04:26:45;;;;;;;17.83;9.30;;;18.90;99.90;;;;;;5031767;28;20461;-66
2023/08/23 04:29:14;;;;;;;17.20;8.83;;;18.90;99.90;;;;;;5031975;28;20441;-65
2023/08/23 04:31:43;;;;;;;13.60;8.37;;;19.10;99.90;;;;;;5031715;28;20554;-65
2023/08/23 04:34:11;;;;;;;12.63;8.67;;;19.10;99.90;;;;;;5031433;28;20495;-66
2023/08/23 04:36:39;;;;;;;16.00;8.67;;;19.10;99.90;;;;;;5031771;28;21017;-66
2023/08/23 04:39:07;;;;;;;15.43;8.77;;;19.00;99.90;;;;;;5031437;28;20484;-66
2023/08/23 04:41:35;;;;;;;12.00;8.17;;;19.00;99.90;;;;;;5031337;28;20832;-66
2023/08/23 04:44:03;;;;;;;13.40;8.77;;;19.00;99.90;;;;;;5031650;28;20445;-67
2023/08/23 04:46:31;;;;;;;11.63;7.90;;;19.00;99.90;;;;;;5031302;28;20515;-67
2023/08/23 04:49:00;;;;;;;15.00;9.10;;;19.00;99.90;;;;;;5030868;28;20438;-65
2023/08/23 04:51:28;;;;;;;13.10;8.40;;;19.00;99.90;;;;;;5030650;28;20477;-65
2023/08/23 04:53:56;;;;;;;14.90;8.87;;;19.10;99.90;;;;;;5030648;28;20515;-66
2023/08/23 04:56:24;;;;;;;13.70;8.30;;;19.20;99.90;;;;;;5030694;28;20514;-66
2023/08/23 04:58:53;;;;;;;13.03;8.40;;;19.20;99.90;;;;;;5031391;28;20543;-66
2023/08/23 05:01:21;;;;;;;13.60;9.60;;;19.20;99.90;;;;;;5031388;28;20522;-66
2023/08/23 05:03:49;;;;;;;15.03;8.93;;;19.30;99.90;;;;;;5028861;28;20445;-66
2023/08/23 05:06:18;;;;;;;13.83;9.00;;;19.40;99.90;;;;;;5030883;28;21046;-66
2023/08/23 05:08:46;;;;;;;14.00;9.40;;;19.50;99.90;;;;;;5047768;28;20463;-66
2023/08/23 05:11:14;;;;;;;15.70;10.00;;;19.60;99.90;;;;;;5051241;28;20490;-66
2023/08/23 05:13:42;;;;;;;14.30;9.07;;;19.60;99.90;;;;;;5050260;28;20539;-66
2023/08/23 05:16:10;;;;;;;11.57;8.00;;;19.60;99.90;;;;;;5050394;28;20472;-66
2023/08/23 05:18:38;;;;;;;14.10;7.83;;;19.70;99.90;;;;;;5044326;28;20457;-66
2023/08/23 05:21:08;;;;;;;13.20;8.80;;;19.80;99.90;;;;;;5030114;28;20480;-66
2023/08/23 05:23:37;;;;;;;12.60;8.10;;;19.80;99.90;;;;;;5030417;28;20536;-66
2023/08/23 05:26:06;;;;;;;12.40;7.43;;;19.70;99.90;;;;;;5030360;28;20475;-66
2023/08/23 05:28:34;;;;;;;12.40;7.83;;;19.90;99.90;;;;;;5030320;28;20441;-66
2023/08/23 05:31:02;;;;;;;13.67;8.47;;;20.00;99.90;;;;;;5030408;28;20918;-66
2023/08/23 05:33:31;;;;;;;11.77;8.13;;;19.90;99.90;;;;;;5044042;28;20459;-66
2023/08/23 05:35:59;;;;;;;13.90;9.30;;;19.90;99.90;;;;;;5050574;28;20491;-66
2023/08/23 05:38:26;;;;;;;14.97;9.00;;;20.00;99.90;;;;;;5050050;28;20444;-66
2023/08/23 05:40:56;;;;;;;15.33;9.70;;;20.00;99.90;;;;;;5051109;28;20440;-65
2023/08/23 05:43:24;;;;;;;16.60;9.43;;;20.10;99.90;;;;;;5049765;28;20446;-66
2023/08/23 05:45:53;;;;;;;14.90;9.30;;;20.10;99.90;;;;;;5050082;28;20555;-66
2023/08/23 05:48:21;;;;;;;13.93;9.73;;;20.10;99.90;;;;;;5048789;28;20480;-66
2023/08/23 05:50:50;;;;;;;15.03;9.90;;;20.20;99.90;;;;;;5041400;28;20526;-66
2023/08/23 05:53:19;;;;;;;14.63;10.37;;;20.20;99.90;;;;;;5036699;28;20436;-66
2023/08/23 05:55:48;;;;;;;15.80;10.60;;;20.30;99.90;;;;;;5049874;28;20470;-66
2023/08/23 05:58:18;;;;;;;14.30;10.40;;;20.20;99.90;;;;;;5049999;28;20456;-66
2023/08/23 06:00:47;;;;;;;15.07;10.77;;;20.20;99.90;;;;;;5050285;28;20881;-66
2023/08/23 06:03:16;;;;;;;15.13;10.57;;;20.30;99.90;;;;;;5049696;28;20447;-66
2023/08/23 06:05:45;;;;;;;14.17;9.60;;;20.50;99.90;;;;;;5049337;28;20555;-67
2023/08/23 06:08:13;;;;;;;14.37;10.87;;;20.60;99.90;;;;;;5050056;28;20530;-66
2023/08/23 06:10:41;;;;;;;15.70;10.50;;;20.70;99.90;;;;;;5049870;28;20939;-65
2023/08/23 06:13:09;;;;;;;15.20;10.30;;;20.80;99.90;;;;;;5047700;28;20498;-66
2023/08/23 06:15:38;;;;;;;18.20;12.33;;;20.80;99.90;;;;;;5042316;28;20574;-65
2023/08/23 06:18:06;;;;;;;15.50;10.43;;;20.90;99.90;;;;;;5045755;28;20538;-65
2023/08/23 06:20:34;;;;;;;16.17;10.03;;;21.00;99.90;;;;;;5049287;28;20876;-65
2023/08/23 06:23:02;;;;;;;15.90;9.80;;;21.00;99.90;;;;;;5049569;28;20432;-65
2023/08/23 06:25:30;;;;;;;14.63;10.53;;;21.00;99.90;;;;;;5049244;28;21873;-65
2023/08/23 06:27:58;;;;;;;13.57;9.40;;;21.10;99.90;;;;;;5049843;28;20479;-65
2023/08/23 06:30:26;;;;;;;13.93;9.83;;;21.10;99.90;;;;;;5049837;28;20490;-66
2023/08/23 06:32:55;;;;;;;16.60;10.00;;;21.30;99.90;;;;;;5048980;28;20476;-65
2023/08/23 06:35:24;;;;;;;17.40;10.43;;;21.30;99.90;;;;;;5049254;28;20448;-65
2023/08/23 06:37:52;;;;;;;14.23;9.37;;;21.40;99.90;;;;;;5049168;28;20498;-65
2023/08/23 06:40:20;;;;;;;17.70;9.70;;;21.50;99.90;;;;;;5049830;28;20454;-70
2023/08/23 06:42:48;;;;;;;12.33;9.40;;;21.60;99.90;;;;;;5049957;28;20543;-67
2023/08/23 06:45:16;;;;;;;15.33;10.80;;;21.70;99.90;;;;;;5049803;28;20458;-65
2023/08/23 06:47:44;;;;;;;14.17;10.13;;;21.80;99.90;;;;;;5049392;28;20501;-66
2023/08/23 06:50:14;;;;;;;17.57;10.60;;;21.90;99.90;;;;;;5030321;28;20830;-66
2023/08/23 06:52:44;;;;;;;14.90;10.03;;;21.90;99.90;;;;;;5029073;28;20477;-66
2023/08/23 06:55:12;;;;;;;14.67;10.57;;;22.10;99.90;;;;;;5029309;28;20931;-66
2023/08/23 06:57:40;;;;;;;15.10;9.33;;;22.30;99.90;;;;;;5029552;28;20451;-67
2023/08/23 07:00:10;;;;;;;14.97;10.60;;;22.40;99.90;;;;;;5033143;28;20942;-66
2023/08/23 07:02:38;;;;;;;15.60;10.60;;;22.50;99.90;;;;;;5039634;28;20444;-66
2023/08/23 07:05:08;;;;;;;15.17;10.53;;;22.60;99.90;;;;;;5052343;28;20444;-66
2023/08/23 07:07:37;;;;;;;14.80;10.07;;;22.50;99.90;;;;;;5053627;28;20896;-66
2023/08/23 07:10:06;;;;;;;15.73;10.10;;;22.60;99.90;;;;;;5053120;28;20750;-66
2023/08/23 07:12:52;;;;;;;13.60;9.83;;;22.70;99.90;;;;;;5053145;28;21025;-66
2023/08/23 07:15:20;;;;;;;14.80;9.60;;;22.70;99.90;;;;;;5052980;28;20436;-65
2023/08/23 07:17:49;;;;;;;14.57;10.00;;;22.80;99.90;;;;;;5053192;28;20447;-65
2023/08/23 07:20:18;;;;;;;14.10;10.67;;;22.90;99.90;;;;;;5051386;28;20451;-66
2023/08/23 07:22:47;;;;;;;15.40;10.07;;;22.90;99.90;;;;;;5052959;28;20444;-66
2023/08/23 07:25:16;;;;;;;16.20;9.53;;;23.00;99.90;;;;;;5052876;28;20440;-66
2023/08/23 07:27:44;;;;;;;13.50;9.40;;;23.00;99.90;;;;;;5052915;28;20513;-67
2023/08/23 07:30:13;;;;;;;14.40;9.53;;;23.10;99.90;;;;;;5052885;28;20526;-66
2023/08/23 07:32:41;;;;;;;14.50;9.00;;;23.20;99.90;;;;;;5052197;28;20479;-71
2023/08/23 07:35:10;;;;;;;15.07;9.47;;;23.20;99.90;;;;;;5048991;28;20436;-66
2023/08/23 07:37:39;;;;;;;14.07;8.83;;;23.30;99.90;;;;;;5032781;28;20520;-66
2023/08/23 07:40:09;;;;;;;14.10;8.40;;;23.30;99.90;;;;;;5033200;28;20441;-66
2023/08/23 07:42:38;;;;;;;12.60;8.10;;;23.50;99.90;;;;;;5032612;28;20441;-67
2023/08/23 07:45:07;;;;;;;14.00;9.27;;;23.70;99.90;;;;;;5032992;28;20475;-66
2023/08/23 07:47:35;;;;;;;15.13;9.20;;;23.90;99.90;;;;;;5032652;28;20456;-68
2023/08/23 07:50:04;;;;;;;13.67;8.80;;;24.00;99.90;;;;;;5034422;28;20441;-67
2023/08/23 07:52:32;;;;;;;11.50;7.80;;;24.00;99.90;;;;;;5052426;28;20471;-67
2023/08/23 07:55:00;;;;;;;13.93;8.73;;;24.00;99.90;;;;;;5052111;28;20816;-67
2023/08/23 07:57:29;;;;;;;13.07;8.83;;;24.10;99.90;;;;;;5052561;28;20513;-66
2023/08/23 07:59:59;;;;;;;12.90;8.40;;;24.20;99.90;;;;;;5043022;28;20456;-67
2023/08/23 08:02:31;;;;;;;12.98;8.40;;;24.30;99.90;;;;;;5050936;28;20438;-66
2023/08/23 08:04:59;;;;;;;13.83;7.90;;;24.30;99.90;;;;;;5052239;28;20197;-66
2023/08/23 08:07:28;;;;;;;15.43;8.53;;;24.30;99.90;;;;;;5041345;28;20483;-66
2023/08/23 08:10:16;;;;;;;17.00;9.60;;;24.40;99.90;;;;;;5038327;28;20885;-66
2023/08/23 08:12:45;;;;;;;12.50;8.17;;;24.40;99.90;;;;;;5039813;28;20525;-66
2023/08/23 08:15:14;;;;;;;15.10;8.87;;;24.40;99.90;;;;;;5039723;28;20491;-65
2023/08/23 08:17:43;;;;;;;12.30;7.90;;;24.50;99.90;;;;;;5041692;28;20472;-66
2023/08/23 08:20:12;;;;;;;14.10;8.50;;;24.60;99.90;;;;;;5045025;28;20506;-66
2023/08/23 08:22:40;;;;;;;13.60;8.27;;;24.70;99.90;;;;;;5044257;28;20440;-65
2023/08/23 08:25:09;;;;;;;14.37;8.03;;;24.80;99.90;;;;;;5032526;28;20437;-66
2023/08/23 08:27:41;;;;;;;13.37;7.50;;;25.00;99.90;;;;;;5038988;28;20444;-66
2023/08/23 08:30:11;;;;;;;12.20;7.30;;;25.20;99.90;;;;;;5038957;28;20885;-65
2023/08/23 08:32:39;;;;;;;13.77;8.67;;;25.30;99.90;;;;;;5039505;28;20482;-65
2023/08/23 08:35:08;;;;;;;14.60;7.93;;;25.50;99.90;;;;;;5042353;28;20945;-66
2023/08/23 08:37:37;;;;;;;12.90;8.00;;;25.60;99.90;;;;;;5041763;28;20453;-66
2023/08/23 08:40:06;;;;;;;13.10;7.10;;;25.80;99.90;;;;;;5043132;28;20452;-66
2023/08/23 08:42:34;;;;;;;13.83;8.33;;;26.10;99.90;;;;;;5038589;28;20433;-66
2023/08/23 08:45:02;;;;;;;16.53;8.40;;;26.20;99.90;;;;;;5043775;28;20452;-66
2023/08/23 08:47:32;;;;;;;16.70;8.40;;;26.30;99.90;;;;;;5043985;28;20530;-66
2023/08/23 08:50:00;;;;;;;14.13;8.33;;;26.20;99.90;;;;;;5044613;28;20490;-67
2023/08/23 08:52:31;;;;;;;14.10;8.10;;;26.10;99.90;;;;;;5042824;28;21749;-65
2023/08/23 08:55:01;;;;;;;11.00;7.70;;;26.20;99.90;;;;;;5039393;28;20452;-69
2023/08/23 08:57:29;;;;;;;16.70;8.17;;;26.30;99.90;;;;;;5042782;28;20553;-68
2023/08/23 08:59:59;;;;;;;14.50;8.23;;;26.60;99.90;;;;;;5040439;28;20490;-68
2023/08/23 09:02:28;;;;;;;16.00;8.90;;;26.90;99.90;;;;;;5035918;28;20448;-67
2023/08/23 09:04:58;;;;;;;13.00;7.80;;;27.00;99.90;;;;;;5041079;28;21169;-66
2023/08/23 09:07:26;;;;;;;11.47;7.17;;;27.00;99.90;;;;;;5042919;28;20942;-67
2023/08/23 09:09:55;;;;;;;13.20;7.27;;;26.90;99.90;;;;;;5043011;28;20456;-67
2023/08/23 09:12:23;;;;;;;12.97;7.43;;;27.00;99.90;;;;;;5040201;28;20475;-67
2023/08/23 09:14:51;;;;;;;12.63;7.43;;;27.20;99.90;;;;;;5040343;28;20452;-68
2023/08/23 09:17:22;;;;;;;11.20;7.17;;;27.20;99.90;;;;;;5040512;28;20511;-68
2023/08/23 09:19:50;;;;;;;13.87;7.40;;;27.40;99.90;;;;;;5041472;28;20452;-68
2023/08/23 09:22:23;;;;;;;13.90;7.70;;;27.40;99.90;;;;;;5034116;28;20441;-68
2023/08/23 09:24:51;;;;;;;15.20;7.43;;;27.40;99.90;;;;;;5031503;28;20441;-68
2023/08/23 09:27:20;;;;;;;14.10;7.30;;;27.50;99.90;;;;;;5047635;28;20448;-67
2023/08/23 09:30:05;;;;;;;11.37;7.37;;;27.50;99.90;;;;;;5046432;28;21188;-68
2023/08/23 09:32:33;;;;;;;13.70;6.80;;;27.70;99.90;;;;;;5041002;28;20874;-68
2023/08/23 09:35:11;;;;;;;10.50;6.70;;;28.20;99.90;;;;;;5036910;28;20445;-66
2023/08/23 09:37:45;;;;;;;15.20;6.60;;;28.50;99.90;;;;;;5041983;28;20968;-68
2023/08/23 09:40:21;;;;;;;15.20;7.07;;;28.70;99.90;;;;;;5043533;28;20442;-67
2023/08/23 09:42:50;;;;;;;15.50;6.27;;;28.90;99.90;;;;;;5040125;28;20516;-67
2023/08/23 09:45:20;;;;;;;11.17;6.70;;;29.00;99.50;;;;;;5031063;28;20962;-67
2023/08/23 09:47:52;;;;;;;12.80;5.90;;;29.30;99.60;;;;;;5043395;28;20437;-68
2023/08/23 09:50:22;;;;;;;12.30;6.00;;;29.70;99.90;;;;;;5041264;28;20486;-67
2023/08/23 09:52:53;;;;;;;10.87;5.70;;;30.00;98.40;;;;;;5038247;28;21143;-68
2023/08/23 09:55:22;;;;;;;9.90;6.37;;;30.60;97.10;;;;;;5045640;28;20890;-68
2023/08/23 09:57:52;;;;;;;10.93;5.87;;;30.90;96.30;;;;;;5041829;28;20455;-68
2023/08/23 10:00:22;;;;;;;12.20;6.00;;;31.40;93.60;;;;;;5038813;28;20914;-67
2023/08/23 10:02:52;;;;;;;10.77;6.17;;;31.70;93.80;;;;;;5038761;28;20472;-68
2023/08/23 10:05:20;;;;;;;9.90;5.70;;;32.10;90.70;;;;;;5034549;28;20871;-68
2023/08/23 10:07:55;;;;;;;10.60;5.97;;;32.10;87.80;;;;;;5035135;28;20435;-67
2023/08/23 10:10:23;;;;;;;11.90;7.40;;;31.70;85.10;;;;;;5040673;28;20812;-68
2023/08/23 10:12:54;;;;;;;12.73;5.90;;;30.90;85.50;;;;;;5034935;28;20437;-68
2023/08/23 10:15:27;;;;;;;10.57;5.27;;;30.60;87.80;;;;;;5042177;28;20436;-68
2023/08/23 10:17:57;;;;;;;10.87;5.67;;;30.90;86.90;;;;;;5037236;28;20432;-68
2023/08/23 10:20:25;;;;;;;11.87;5.90;;;31.20;84.50;;;;;;5033708;28;20503;-67
2023/08/23 10:22:56;;;;;;;11.67;6.40;;;31.30;82.20;;;;;;5045379;28;21075;-67
2023/08/23 10:25:24;;;;;;;11.63;5.93;;;31.10;82.60;;;;;;5035399;28;20532;-67
2023/08/23 10:27:55;;;;;;;11.60;6.00;;;30.80;83.30;;;;;;5037862;28;20440;-68
2023/08/23 10:30:24;;;;;;;11.17;5.67;;;30.80;88.40;;;;;;5038180;28;20443;-68
2023/08/23 10:32:52;;;;;;;10.37;6.17;;;31.10;84.20;;;;;;5037530;28;20448;-68
2023/08/23 10:35:23;;;;;;;9.70;5.10;;;31.60;80.70;;;;;;5038461;28;20444;-68
2023/08/23 10:37:54;;;;;;;10.70;5.10;;;32.00;74.70;;;;;;5037008;28;20448;-68
2023/08/23 10:40:22;;;;;;;12.47;5.30;;;32.00;72.30;;;;;;5039906;28;20869;-68
2023/08/23 10:42:51;;;;;;;9.67;4.50;;;32.20;71.10;;;;;;5040162;28;20452;-68
2023/08/23 10:45:19;;;;;;;10.60;5.50;;;32.50;73.30;;;;;;5029787;28;20494;-68
2023/08/23 10:47:50;;;;;;;8.83;5.47;;;32.90;70.70;;;;;;5034246;28;20436;-67
2023/08/23 10:50:20;;;;;;;11.30;5.10;;;33.30;68.50;;;;;;5038215;28;20443;-68
2023/08/23 10:52:49;;;;;;;11.20;5.20;;;33.10;68.30;;;;;;5039698;28;20436;-67
2023/08/23 10:55:19;;;;;;;10.30;4.73;;;32.90;69.00;;;;;;5037015;28;20912;-67
2023/08/23 10:57:47;;;;;;;12.73;5.53;;;32.90;68.70;;;;;;5036323;28;20443;-67
2023/08/23 11:00:16;;;;;;;8.60;4.60;;;33.30;66.10;;;;;;5038174;28;20443;-67
2023/08/23 11:02:44;;;;;;;9.80;4.80;;;33.60;64.20;;;;;;5031428;28;21682;-68
2023/08/23 11:05:12;;;;;;;8.53;5.17;;;33.80;64.30;;;;;;5034546;28;20432;-65
2023/08/23 11:07:40;;;;;;;11.47;5.53;;;34.20;63.60;;;;;;5033723;28;20518;-67
2023/08/23 11:10:10;;;;;;;10.37;5.83;;;34.20;62.80;;;;;;5028722;28;20449;-67
2023/08/23 11:12:39;;;;;;;9.70;6.00;;;33.70;63.80;;;;;;5041423;28;20497;-67
2023/08/23 11:15:08;;;;;;;9.80;5.33;;;33.20;68.70;;;;;;5037900;28;20504;-67
2023/08/23 11:17:38;;;;;;;9.70;5.13;;;33.40;64.90;;;;;;5043763;28;20539;-67
2023/08/23 11:20:08;;;;;;;10.40;5.47;;;33.10;63.30;;;;;;5043444;28;20443;-67
2023/08/23 11:22:36;;;;;;;13.10;5.73;;;32.60;63.40;;;;;;5031734;28;21044;-68
2023/08/23 11:25:05;;;;;;;14.63;6.00;;;32.30;66.10;;;;;;5032105;28;20858;-67
2023/08/23 11:27:33;;;;;;;12.30;6.30;;;32.20;65.70;;;;;;5036567;28;20548;-66
2023/08/23 11:30:03;;;;;;;10.53;5.93;;;32.00;67.10;;;;;;5034661;28;20531;-67
2023/08/23 11:32:32;;;;;;;11.13;5.90;;;31.80;67.50;;;;;;5037821;28;20502;-67
2023/08/23 11:35:01;;;;;;;11.97;5.80;;;32.00;68.70;;;;;;5039281;28;20515;-68
2023/08/23 11:37:29;;;;;;;11.90;5.63;;;32.60;70.20;;;;;;5036453;28;20471;-68
2023/08/23 11:39:58;;;;;;;10.77;5.77;;;33.30;63.90;;;;;;5034776;28;20433;-68
2023/08/23 11:42:26;;;;;;;11.83;5.67;;;33.40;63.50;;;;;;5033683;28;20469;-67
2023/08/23 11:44:56;;;;;;;8.83;5.23;;;33.60;61.80;;;;;;5042534;28;20440;-68
2023/08/23 11:47:28;;;;;;;11.10;5.47;;;33.80;60.10;;;;;;5037847;28;20460;-67
2023/08/23 11:49:57;;;;;;;9.53;5.23;;;33.90;58.50;;;;;;5036127;28;20436;-67
2023/08/23 11:52:28;;;;;;;11.33;5.30;;;34.50;59.20;;;;;;5044926;28;20535;-67
2023/08/23 11:54:56;;;;;;;10.73;5.40;;;35.20;57.90;;;;;;5045549;28;20477;-67
2023/08/23 11:57:24;;;;;;;10.90;5.10;;;34.40;57.20;;;;;;5041715;28;20464;-67
2023/08/23 11:59:52;;;;;;;14.00;5.47;;;33.80;58.30;;;;;;5043868;28;21009;-67
2023/08/23 12:02:20;;;;;;;10.03;5.77;;;33.60;59.10;;;;;;5042033;28;20530;-67
2023/08/23 12:04:49;;;;;;;10.73;4.90;;;33.50;58.90;;;;;;5035310;28;20519;-67
2023/08/23 12:07:17;;;;;;;9.57;4.83;;;33.90;58.30;;;;;;5045797;28;20478;-67
2023/08/23 12:09:45;;;;;;;11.03;5.33;;;33.90;56.50;;;;;;5041303;28;20486;-65
2023/08/23 12:12:13;;;;;;;13.10;5.47;;;34.10;57.20;;;;;;5034636;28;20441;-67
2023/08/23 12:14:41;;;;;;;12.53;4.93;;;34.00;57.40;;;;;;5038060;28;20473;-67
2023/08/23 12:17:09;;;;;;;11.00;5.70;;;34.00;57.10;;;;;;5044948;28;20465;-67
2023/08/23 12:19:37;;;;;;;12.73;6.17;;;34.10;56.90;;;;;;5042952;28;20456;-68
2023/08/23 12:22:10;;;;;;;9.93;4.80;;;34.10;57.00;;;;;;5038378;28;20441;-67
2023/08/23 12:24:38;;;;;;;10.33;4.90;;;34.40;56.00;;;;;;5036675;28;20443;-66
2023/08/23 12:27:06;;;;;;;8.60;4.80;;;34.60;55.40;;;;;;5042391;28;20514;-67
2023/08/23 12:29:34;;;;;;;12.20;5.00;;;34.90;54.60;;;;;;5044262;28;20487;-67
2023/08/23 12:32:02;;;;;;;12.47;4.37;;;35.40;54.60;;;;;;5034928;28;20880;-67
2023/08/23 12:34:30;;;;;;;11.13;5.10;;;35.50;54.30;;;;;;5029000;28;20485;-67
2023/08/23 12:36:58;;;;;;;11.70;5.17;;;35.50;54.00;;;;;;5031097;28;20461;-67
2023/08/23 12:39:28;;;;;;;9.03;4.60;;;35.80;52.50;;;;;;5045878;28;20448;-67
2023/08/23 12:41:56;;;;;;;9.13;4.77;;;36.10;52.90;;;;;;5037419;28;20905;-67
2023/08/23 12:44:25;;;;;;;10.23;4.80;;;36.60;52.30;;;;;;5040088;28;20448;-68